Time;durP1;ratioP1;P1;durP2;ratioP2;P2;SDS_P1;SDS_P2;PMS_P1;PMS_P2;Temp;Humidity;BMP_temperature;BMP_pressure;BME280_temperature;BME280_humidity;BME280_pressure;Samples;Min_cycle;Max_cycle;Signal;HPM_P1;HPM_P2
2021/12/07 00:01:35;;;;;;;;;5.67;4.00;;;;;7.93;66.63;100782.13;5076431;28;45577;-77
2021/12/07 00:04:19;;;;;;;;;4.33;3.00;;;;;7.99;66.75;100802.31;5066425;28;45546;-78
2021/12/07 00:06:45;;;;;;;;;7.67;3.00;;;;;8.02;66.98;100812.03;5077890;27;45504;-77
2021/12/07 00:09:14;;;;;;;;;5.00;2.67;;;;;7.83;66.45;100784.28;5074140;27;45961;-79
2021/12/07 00:11:40;;;;;;;;;4.67;1.67;;;;;8.03;66.29;100808.28;5074270;27;45931;-78
2021/12/07 00:14:12;;;;;;;;;3.67;2.00;;;;;8.04;66.50;100810.81;5074420;28;46045;-78
2021/12/07 00:16:38;;;;;;;;;6.00;4.00;;;;;7.92;66.83;100790.50;5073431;27;45729;-78
2021/12/07 00:19:04;;;;;;;;;2.67;1.67;;;;;8.03;66.62;100803.66;5074655;28;45452;-75
2021/12/07 00:21:30;;;;;;;;;5.00;2.00;;;;;7.97;66.75;100792.66;5076513;27;45373;-76
2021/12/07 00:23:56;;;;;;;;;1.33;1.33;;;;;7.96;66.32;100791.78;5078782;27;45384;-76
2021/12/07 00:26:21;;;;;;;;;2.00;1.00;;;;;8.00;66.79;100809.50;5074711;27;45934;-76
2021/12/07 00:28:49;;;;;;;;;4.00;1.33;;;;;7.98;66.26;100802.53;5075215;27;45686;-77
2021/12/07 00:31:23;;;;;;;;;5.67;2.67;;;;;7.99;66.13;100793.28;5073661;28;45954;-77
2021/12/07 00:34:05;;;;;;;;;2.00;2.00;;;;;7.82;67.03;100774.41;5072475;27;45930;-78
2021/12/07 00:36:30;;;;;;;;;1.33;1.33;;;;;7.98;66.66;100805.25;5073091;28;45601;-78
2021/12/07 00:38:55;;;;;;;;;2.33;2.33;;;;;7.89;67.09;100789.00;5073079;27;45330;-77
2021/12/07 00:41:21;;;;;;;;;1.67;1.67;;;;;8.05;67.03;100814.38;5073174;27;45498;-77
2021/12/07 00:43:46;;;;;;;;;2.00;1.67;;;;;8.11;66.72;100821.81;5073189;27;45764;-77
2021/12/07 00:46:12;;;;;;;;;5.00;2.33;;;;;8.11;66.03;100811.75;5074661;27;45808;-77
2021/12/07 00:48:37;;;;;;;;;3.00;2.00;;;;;8.19;66.26;100818.13;5073569;27;45695;-78
2021/12/07 00:51:03;;;;;;;;;5.67;2.00;;;;;8.24;66.33;100811.03;5072759;27;45761;-77
2021/12/07 00:53:29;;;;;;;;;7.33;1.33;;;;;8.28;65.55;100820.56;5073228;27;45698;-77
2021/12/07 00:55:59;;;;;;;;;1.67;1.00;;;;;8.32;65.65;100818.28;5073265;27;45460;-76
2021/12/07 00:58:26;;;;;;;;;2.00;1.33;;;;;8.39;65.31;100824.66;5071864;27;45734;-75
2021/12/07 01:01:06;;;;;;;;;2.33;1.33;;;;;8.45;65.15;100828.56;5065113;27;45741;-77
2021/12/07 01:03:32;;;;;;;;;4.00;2.00;;;;;8.50;65.20;100826.06;5068780;28;45533;-77
2021/12/07 01:06:14;;;;;;;;;0.33;0.33;;;;;8.50;65.34;100820.63;5073769;28;45237;-77
2021/12/07 01:25:12;;;;;;;;;3.00;0.33;;;;;8.65;62.72;100802.28;5072306;28;46253;-77
2021/12/07 01:27:38;;;;;;;;;1.67;1.00;;;;;8.59;62.80;100807.69;5072809;28;45476;-78
2021/12/07 01:30:12;;;;;;;;;1.00;1.00;;;;;8.57;62.43;100816.06;5071652;28;45601;-76
2021/12/07 01:40:31;;;;;;;;;1.67;0.00;;;;;8.17;63.51;100785.53;5073206;27;45816;-75
2021/12/07 01:59:33;;;;;;;;;2.00;1.00;;;;;8.03;64.35;100827.38;5075780;28;45800;-81
2021/12/07 02:01:59;;;;;;;;;0.33;0.33;;;;;8.02;64.43;100839.34;5065514;27;45444;-80
2021/12/07 02:04:25;;;;;;;;;0.00;0.00;;;;;7.93;63.81;100839.47;5073949;27;45525;-80
2021/12/07 02:06:51;;;;;;;;;1.67;1.00;;;;;7.92;64.98;100837.75;5072469;27;46994;-79
2021/12/07 02:09:16;;;;;;;;;0.00;0.00;;;;;7.85;64.71;100831.34;5071450;28;45707;-81
2021/12/07 02:11:49;;;;;;;;;0.33;0.33;;;;;7.89;64.47;100835.41;5075382;28;45324;-81
2021/12/07 02:14:16;;;;;;;;;0.00;0.00;;;;;7.84;64.64;100816.00;5080792;27;45637;-80
2021/12/07 02:16:48;;;;;;;;;1.00;1.00;;;;;7.87;64.49;100823.81;5072682;28;46306;-80
2021/12/07 02:19:14;;;;;;;;;1.00;1.00;;;;;7.82;64.01;100814.50;5074900;27;45562;-80
2021/12/07 02:21:40;;;;;;;;;0.00;0.00;;;;;7.70;64.08;100800.50;5068845;28;45480;-82
2021/12/07 02:24:05;;;;;;;;;1.00;0.00;;;;;7.60;64.64;100798.91;5076319;28;45625;-81
2021/12/07 02:26:31;;;;;;;;;1.00;1.00;;;;;7.65;64.16;100811.09;5075777;28;45822;-80
2021/12/07 02:29:00;;;;;;;;;1.00;1.00;;;;;7.75;64.52;100838.97;5075794;28;45298;-78
2021/12/07 02:31:26;;;;;;;;;1.67;1.67;;;;;7.66;64.29;100826.47;5066625;27;45347;-81
2021/12/07 02:33:51;;;;;;;;;1.33;1.33;;;;;7.72;64.03;100828.44;5069427;28;45900;-80
2021/12/07 02:36:17;;;;;;;;;0.00;0.00;;;;;7.66;64.13;100832.75;5070340;28;46483;-80
2021/12/07 02:38:43;;;;;;;;;0.00;0.00;;;;;7.67;64.41;100839.91;5073031;28;45445;-80
2021/12/07 02:41:09;;;;;;;;;1.00;1.00;;;;;7.63;63.55;100829.56;5072302;27;45431;-80
2021/12/07 02:43:35;;;;;;;;;0.00;0.00;;;;;7.58;64.28;100827.41;5072115;27;45713;-81
2021/12/07 02:46:04;;;;;;;;;0.00;0.00;;;;;7.48;64.57;100811.28;5073320;27;45487;-80
2021/12/07 02:48:31;;;;;;;;;1.33;0.00;;;;;7.52;64.30;100822.69;5087263;27;45869;-80
2021/12/07 02:50:57;;;;;;;;;0.00;0.00;;;;;7.51;64.35;100830.00;5073435;27;45472;-79
2021/12/07 02:53:26;;;;;;;;;0.67;0.67;;;;;7.45;64.49;100829.94;5070206;28;46214;-81
2021/12/07 02:55:54;;;;;;;;;0.67;0.67;;;;;7.39;64.68;100823.31;5064035;28;46656;-80
2021/12/07 02:58:20;;;;;;;;;3.00;1.00;;;;;7.34;64.39;100828.50;5072647;27;45815;-80
2021/12/07 03:00:56;;;;;;;;;2.00;1.00;;;;;7.32;64.17;100836.00;5071717;27;45758;-79
2021/12/07 03:03:21;;;;;;;;;3.33;0.33;;;;;7.25;63.94;100828.56;5072316;27;46228;-80
2021/12/07 03:06:06;;;;;;;;;1.00;0.00;;;;;7.31;64.50;100845.25;5070958;27;45986;-79
2021/12/07 03:27:56;;;;;;;;;1.00;0.00;;;;;7.23;66.05;100862.50;5079945;28;45527;-79
2021/12/07 03:30:22;;;;;;;;;1.00;1.00;;;;;7.28;66.54;100864.72;5095195;27;45612;-73
2021/12/07 03:32:48;;;;;;;;;3.67;2.67;;;;;7.33;65.86;100867.72;5078200;27;45591;-72
2021/12/07 03:35:14;;;;;;;;;3.67;2.00;;;;;7.28;65.59;100872.91;5076024;27;46102;-71
2021/12/07 03:37:40;;;;;;;;;5.00;2.00;;;;;7.42;66.01;100882.97;5077102;27;45610;-71
2021/12/07 03:40:08;;;;;;;;;5.00;1.00;;;;;7.47;65.21;100876.97;5073841;27;45962;-73
2021/12/07 03:42:34;;;;;;;;;2.33;1.33;;;;;7.49;65.11;100861.28;5071276;27;45553;-72
2021/12/07 03:44:59;;;;;;;;;2.33;2.00;;;;;7.47;65.75;100844.22;5073548;28;45705;-72
2021/12/07 03:47:25;;;;;;;;;3.33;1.67;;;;;7.52;64.57;100856.28;5072949;27;45819;-72
2021/12/07 03:49:50;;;;;;;;;2.67;2.00;;;;;7.53;65.00;100866.16;5069516;28;45675;-71
2021/12/07 03:52:16;;;;;;;;;3.00;1.67;;;;;7.57;65.24;100870.22;5072993;27;45473;-73
2021/12/07 03:54:41;;;;;;;;;6.00;2.33;;;;;7.56;65.00;100862.19;5071745;28;45828;-72
2021/12/07 03:57:07;;;;;;;;;4.00;1.00;;;;;7.52;64.96;100847.25;5070701;27;45847;-72
2021/12/07 03:59:33;;;;;;;;;1.00;1.00;;;;;7.48;65.12;100843.19;5072111;28;45977;-73
2021/12/07 04:01:58;;;;;;;;;2.00;1.00;;;;;7.42;64.80;100842.91;5068727;28;45663;-73
2021/12/07 04:04:24;;;;;;;;;4.00;2.67;;;;;7.40;64.38;100844.97;5071864;28;45964;-73
2021/12/07 04:06:49;;;;;;;;;5.00;2.00;;;;;7.38;64.87;100844.31;5071105;28;47041;-72
2021/12/07 04:09:15;;;;;;;;;3.33;1.00;;;;;7.34;64.95;100839.41;5070491;27;45478;-72
2021/12/07 04:11:40;;;;;;;;;2.67;2.00;;;;;7.31;64.86;100843.34;5069753;27;45427;-74
2021/12/07 04:14:06;;;;;;;;;3.00;1.00;;;;;7.27;64.87;100849.38;5073091;28;45831;-75
2021/12/07 04:16:33;;;;;;;;;2.00;1.67;;;;;7.21;65.94;100859.97;5070116;27;46000;-74
2021/12/07 04:18:58;;;;;;;;;1.00;0.00;;;;;7.12;65.74;100847.44;5075831;27;45505;-73
2021/12/07 04:21:25;;;;;;;;;1.00;1.00;;;;;7.13;65.60;100867.41;5076392;27;45703;-73
2021/12/07 04:23:50;;;;;;;;;4.67;1.00;;;;;7.08;65.84;100865.22;5056505;28;46517;-74
2021/12/07 04:26:16;;;;;;;;;0.67;0.67;;;;;7.05;65.84;100862.84;5075741;28;45398;-74
2021/12/07 04:28:42;;;;;;;;;1.67;0.67;;;;;7.03;65.93;100854.00;5074828;28;45728;-74
2021/12/07 04:31:10;;;;;;;;;1.67;1.00;;;;;6.99;65.80;100850.81;5077186;27;45495;-74
2021/12/07 04:33:36;;;;;;;;;1.00;1.00;;;;;6.96;65.16;100856.63;5073230;27;45554;-71
2021/12/07 04:36:02;;;;;;;;;2.00;1.00;;;;;6.95;66.03;100852.19;5073273;27;45716;-76
2021/12/07 04:38:28;;;;;;;;;3.00;1.00;;;;;6.93;65.04;100851.53;5073390;28;45543;-73
2021/12/07 04:40:54;;;;;;;;;2.00;0.33;;;;;6.90;65.69;100843.69;5089141;27;45334;-74
2021/12/07 04:43:20;;;;;;;;;3.33;1.00;;;;;6.87;65.76;100847.66;5072239;27;45725;-72
2021/12/07 04:58:56;;;;;;;;;2.00;1.00;;;;;6.78;66.47;100843.31;5065259;28;45417;-78
2021/12/07 05:01:23;;;;;;;;;0.00;0.00;;;;;6.79;66.15;100849.59;5067230;27;45797;-72
2021/12/07 05:03:50;;;;;;;;;1.00;1.00;;;;;6.77;66.17;100844.31;5073184;28;45867;-74
2021/12/07 05:06:17;;;;;;;;;2.00;1.00;;;;;6.78;66.01;100848.75;5071762;28;46655;-74
2021/12/07 05:08:53;;;;;;;;;2.00;1.00;;;;;6.73;66.06;100840.25;5073235;27;45506;-74
2021/12/07 05:11:31;;;;;;;;;1.67;1.00;;;;;6.76;66.70;100844.50;5069358;28;45964;-72
2021/12/07 05:14:17;;;;;;;;;1.00;1.00;;;;;6.71;65.62;100835.00;5072690;27;45524;-72
2021/12/07 05:16:56;;;;;;;;;0.33;0.33;;;;;6.71;65.59;100848.63;5073553;27;45756;-73
2021/12/07 05:26:06;;;;;;;;;0.33;0.33;;;;;6.66;65.86;100855.63;5072584;28;45680;-76
2021/12/07 05:38:33;;;;;;;;;4.00;3.33;;;;;6.49;67.10;100842.09;5073610;28;46337;-76
2021/12/07 05:40:59;;;;;;;;;9.67;5.67;;;;;6.54;66.12;100858.78;5074513;27;45803;-75
2021/12/07 05:43:24;;;;;;;;;4.67;4.67;;;;;6.60;66.77;100853.63;5074412;27;45874;-78
2021/12/07 05:45:50;;;;;;;;;4.00;3.00;;;;;6.51;66.43;100844.66;5073385;27;45683;-76
2021/12/07 05:48:16;;;;;;;;;4.67;3.67;;;;;6.60;66.10;100861.81;5088371;27;47814;-78
2021/12/07 05:50:42;;;;;;;;;10.33;6.33;;;;;6.63;66.24;100853.25;5072175;27;45783;-77
2021/12/07 05:53:09;;;;;;;;;7.00;4.67;;;;;6.62;66.24;100860.59;5088428;27;45774;-76
2021/12/07 05:55:36;;;;;;;;;5.00;2.33;;;;;6.60;66.32;100867.25;5073038;27;45924;-76
2021/12/07 05:58:01;;;;;;;;;3.00;2.00;;;;;6.55;66.22;100865.06;5072082;27;45588;-75
2021/12/07 06:00:29;;;;;;;;;2.50;2.00;;;;;6.53;66.90;100859.81;5068997;28;45381;-76
2021/12/07 06:03:00;;;;;;;;;4.00;3.00;;;;;6.58;65.79;100863.88;5071763;27;45953;-74
2021/12/07 06:05:28;;;;;;;;;5.33;4.00;;;;;6.55;67.21;100862.34;5072239;27;45674;-77
2021/12/07 06:07:54;;;;;;;;;2.00;2.00;;;;;6.58;66.80;100866.59;5070535;28;47157;-76
2021/12/07 06:10:19;;;;;;;;;3.00;1.00;;;;;6.58;66.75;100858.41;5071208;28;45398;-77
2021/12/07 06:12:45;;;;;;;;;2.00;2.00;;;;;6.56;66.74;100857.72;5070348;27;45655;-73
2021/12/07 06:15:12;;;;;;;;;3.00;3.00;;;;;6.53;66.32;100848.91;5072784;28;46033;-74
2021/12/07 06:17:38;;;;;;;;;4.67;2.00;;;;;6.57;67.17;100848.53;5073232;27;45424;-77
2021/12/07 06:20:05;;;;;;;;;1.33;1.33;;;;;6.61;66.65;100849.88;5072518;27;45832;-77
2021/12/07 06:22:31;;;;;;;;;8.33;3.67;;;;;6.64;67.11;100838.63;5073300;27;45805;-76
2021/12/07 06:24:56;;;;;;;;;2.00;2.00;;;;;6.68;67.36;100824.44;5071798;28;45887;-76
2021/12/07 06:27:25;;;;;;;;;3.33;2.33;;;;;6.70;66.30;100824.28;5071593;28;46370;-79
2021/12/07 06:29:51;;;;;;;;;3.00;2.00;;;;;6.72;66.68;100816.75;5070127;28;45650;-73
2021/12/07 06:32:16;;;;;;;;;4.33;3.00;;;;;6.74;65.81;100811.97;5072372;28;45378;-76
2021/12/07 06:34:42;;;;;;;;;3.67;3.00;;;;;6.76;66.07;100811.78;5071567;27;45599;-77
2021/12/07 06:37:08;;;;;;;;;4.33;2.67;;;;;6.75;65.74;100799.19;5070587;27;45454;-73
2021/12/07 06:39:38;;;;;;;;;5.00;4.00;;;;;6.74;66.32;100790.19;5079575;27;45710;-79
2021/12/07 06:42:04;;;;;;;;;4.00;2.67;;;;;6.53;65.80;100780.78;5067438;28;45449;-79
2021/12/07 06:44:30;;;;;;;;;3.33;2.33;;;;;6.65;66.08;100804.91;5070918;27;45710;-76
2021/12/07 06:46:55;;;;;;;;;6.33;3.33;;;;;6.58;66.49;100793.88;5057643;27;45998;-79
2021/12/07 06:49:21;;;;;;;;;6.00;4.33;;;;;6.44;66.42;100781.88;5065438;27;45813;-78
2021/12/07 06:51:50;;;;;;;;;3.67;3.67;;;;;6.48;66.52;100804.16;5059440;27;45654;-76
2021/12/07 06:54:16;;;;;;;;;4.00;4.00;;;;;6.42;66.97;100777.63;5069204;27;46971;-84
2021/12/07 06:56:42;;;;;;;;;5.00;4.00;;;;;6.38;66.80;100779.00;5081012;27;47092;-78
2021/12/07 06:59:07;;;;;;;;;4.00;3.67;;;;;6.41;66.83;100786.81;5062761;27;45780;-78
2021/12/07 07:01:33;;;;;;;;;3.00;3.00;;;;;6.35;66.22;100767.47;5066688;27;45540;-77
2021/12/07 07:04:00;;;;;;;;;4.33;3.67;;;;;6.29;66.50;100751.00;5081742;27;46233;-77
2021/12/07 07:06:25;;;;;;;;;7.67;4.67;;;;;6.26;66.97;100759.53;5061918;27;45764;-77
2021/12/07 07:08:51;;;;;;;;;6.33;4.00;;;;;6.16;67.72;100740.69;5060475;27;45487;-77
2021/12/07 07:11:18;;;;;;;;;8.33;4.67;;;;;6.18;68.16;100749.53;5067567;27;45453;-77
2021/12/07 07:13:48;;;;;;;;;6.33;4.67;;;;;6.16;67.83;100757.03;5063749;27;45752;-74
2021/12/07 07:16:16;;;;;;;;;5.67;5.33;;;;;6.16;68.51;100746.16;5064668;27;46229;-73
2021/12/07 07:18:41;;;;;;;;;3.67;3.67;;;;;6.21;68.02;100753.78;5067530;27;45776;-74
2021/12/07 07:21:07;;;;;;;;;9.00;4.67;;;;;6.25;67.93;100752.41;5070600;27;46150;-75
2021/12/07 07:23:33;;;;;;;;;5.00;4.00;;;;;6.27;67.39;100759.38;5070934;27;46072;-76
2021/12/07 07:25:58;;;;;;;;;7.67;3.33;;;;;6.29;68.53;100751.84;5070086;27;46452;-75
2021/12/07 07:28:29;;;;;;;;;9.33;8.00;;;;;6.29;67.97;100730.06;5069672;27;45458;-75
2021/12/07 07:30:54;;;;;;;;;4.67;3.67;;;;;6.32;67.95;100729.69;5055302;27;45386;-73
2021/12/07 07:33:20;;;;;;;;;4.33;4.33;;;;;6.37;67.75;100726.41;5063377;28;46104;-76
2021/12/07 07:35:47;;;;;;;;;6.67;5.00;;;;;6.37;68.03;100715.53;5054555;28;46876;-77
2021/12/07 07:38:13;;;;;;;;;7.67;7.33;;;;;6.45;68.31;100712.75;5064217;28;45995;-73
2021/12/07 07:40:39;;;;;;;;;10.00;9.00;;;;;6.45;67.90;100701.00;5053263;28;45903;-78
2021/12/07 07:43:04;;;;;;;;;17.00;10.67;;;;;6.39;67.92;100696.28;5053636;28;45671;-75
2021/12/07 07:45:30;;;;;;;;;10.00;8.67;;;;;6.41;67.47;100702.38;5053917;28;46186;-82
2021/12/07 07:47:55;;;;;;;;;11.00;8.00;;;;;6.39;67.42;100691.66;5069946;28;45416;-79
2021/12/07 07:50:22;;;;;;;;;12.33;10.00;;;;;6.46;67.84;100686.34;5061093;28;45516;-74
2021/12/07 07:52:47;;;;;;;;;14.00;9.67;;;;;6.53;68.10;100690.88;5071363;28;45402;-73
2021/12/07 07:55:14;;;;;;;;;10.33;6.67;;;;;6.63;67.42;100682.47;5070009;28;46388;-74
2021/12/07 07:57:40;;;;;;;;;9.00;7.00;;;;;6.67;67.00;100682.91;5071004;27;45701;-74
2021/12/07 08:00:11;;;;;;;;;6.67;6.67;;;;;6.75;66.76;100684.72;5072983;28;45393;-85
2021/12/07 08:02:37;;;;;;;;;10.00;9.00;;;;;6.78;67.06;100677.03;5072449;28;46454;-80
2021/12/07 08:05:03;;;;;;;;;13.00;8.67;;;;;6.76;66.41;100667.34;5071036;28;47265;-79
2021/12/07 08:07:29;;;;;;;;;12.67;10.67;;;;;6.79;67.23;100669.69;5073339;27;45430;-81
2021/12/07 08:09:54;;;;;;;;;9.33;9.00;;;;;6.87;67.10;100672.31;5076635;27;45670;-79
2021/12/07 08:12:20;;;;;;;;;13.67;10.00;;;;;6.96;66.22;100670.34;5078652;27;45714;-79
2021/12/07 08:14:45;;;;;;;;;11.00;11.00;;;;;6.99;66.70;100664.53;5075229;28;45688;-80
2021/12/07 08:17:11;;;;;;;;;12.33;11.00;;;;;7.06;66.02;100655.41;5077973;28;45651;-80
2021/12/07 08:19:37;;;;;;;;;20.67;17.67;;;;;7.11;66.38;100654.88;5088430;27;45834;-72
2021/12/07 08:22:03;;;;;;;;;16.67;12.67;;;;;7.08;66.19;100644.34;5070690;27;45571;-75
2021/12/07 08:24:29;;;;;;;;;18.67;14.67;;;;;7.20;66.21;100642.81;5070003;28;47085;-75
2021/12/07 08:26:54;;;;;;;;;12.33;12.00;;;;;7.14;65.79;100635.41;5074681;27;45542;-76
2021/12/07 08:29:20;;;;;;;;;16.33;15.00;;;;;7.26;65.72;100633.03;5074546;28;45702;-75
2021/12/07 08:31:45;;;;;;;;;21.00;16.00;;;;;7.29;65.50;100623.59;5073638;27;45526;-75
2021/12/07 08:34:11;;;;;;;;;18.33;14.00;;;;;7.23;66.00;100619.75;5072285;27;48071;-74
2021/12/07 08:36:37;;;;;;;;;20.67;17.00;;;;;7.30;65.77;100630.75;5073501;28;45391;-75
2021/12/07 08:39:04;;;;;;;;;18.67;16.33;;;;;7.36;65.52;100632.72;5075602;27;45619;-74
2021/12/07 08:41:29;;;;;;;;;20.00;17.33;;;;;7.46;65.68;100621.53;5072524;28;45545;-74
2021/12/07 08:43:56;;;;;;;;;18.33;12.67;;;;;7.63;65.11;100631.16;5071817;28;47689;-74
2021/12/07 08:46:23;;;;;;;;;22.33;19.67;;;;;7.69;64.63;100626.81;5069808;27;45401;-80
2021/12/07 08:48:49;;;;;;;;;15.33;13.67;;;;;7.78;64.17;100628.38;5073558;27;45773;-75
2021/12/07 08:51:16;;;;;;;;;18.00;15.67;;;;;7.82;64.53;100621.50;5070660;27;45478;-75
2021/12/07 08:53:50;;;;;;;;;22.67;18.33;;;;;7.83;64.14;100606.81;5073063;27;47134;-75
2021/12/07 09:01:44;;;;;;;;;13.33;13.33;;;;;7.56;64.09;100581.97;5073588;28;45722;-78
2021/12/07 09:04:13;;;;;;;;;12.00;12.00;;;;;7.54;63.86;100566.81;5072786;27;47161;-75
2021/12/07 09:06:38;;;;;;;;;15.67;12.00;;;;;7.52;63.96;100560.72;5054679;28;45831;-75
2021/12/07 09:09:04;;;;;;;;;11.33;11.33;;;;;7.49;63.81;100552.94;5063646;28;45763;-77
2021/12/07 09:11:30;;;;;;;;;15.67;12.00;;;;;7.49;64.51;100545.56;5073094;27;45876;-80
2021/12/07 09:13:55;;;;;;;;;15.00;14.33;;;;;7.45;64.81;100519.72;5064159;28;45686;-78
2021/12/07 09:16:21;;;;;;;;;19.00;14.33;;;;;7.50;64.00;100544.53;5073814;27;45423;-79
2021/12/07 09:18:50;;;;;;;;;33.00;28.75;;;;;7.48;64.77;100549.34;5065973;28;45614;-75
2021/12/07 09:21:18;;;;;;;;;13.67;12.67;;;;;7.49;63.83;100534.66;5072281;28;45663;-73
2021/12/07 09:23:44;;;;;;;;;14.67;11.67;;;;;7.44;64.10;100515.31;5073910;27;45874;-79
2021/12/07 09:26:10;;;;;;;;;15.33;13.00;;;;;7.40;64.56;100501.19;5076919;27;45939;-80
2021/12/07 09:28:36;;;;;;;;;11.00;10.67;;;;;7.39;65.02;100495.94;5074863;27;45679;-80
2021/12/07 09:31:03;;;;;;;;;16.67;15.67;;;;;7.34;64.82;100509.31;5075969;27;45565;-81
2021/12/07 09:33:30;;;;;;;;;17.33;13.67;;;;;7.25;65.44;100517.63;5068188;28;45717;-78
2021/12/07 09:35:56;;;;;;;;;16.00;14.33;;;;;7.25;65.43;100517.63;5075397;27;45482;-80
2021/12/07 09:38:23;;;;;;;;;18.33;15.00;;;;;7.35;65.24;100521.91;5074677;27;45789;-81
2021/12/07 09:40:50;;;;;;;;;19.00;16.67;;;;;7.32;65.50;100525.03;5073563;27;45399;-81
2021/12/07 09:43:21;;;;;;;;;19.00;16.33;;;;;7.22;66.11;100509.81;5079403;27;45444;-83
2021/12/07 09:45:48;;;;;;;;;19.33;12.00;;;;;7.20;65.88;100533.72;5079909;27;45401;-83
2021/12/07 09:48:13;;;;;;;;;13.67;11.00;;;;;7.17;66.14;100533.25;5083481;27;45489;-83
2021/12/07 09:50:44;;;;;;;;;14.67;12.00;;;;;7.05;66.19;100511.06;5074482;27;45382;-81
2021/12/07 09:53:13;;;;;;;;;11.00;9.00;;;;;7.07;66.13;100506.28;5071523;27;45563;-82
2021/12/07 09:55:39;;;;;;;;;13.67;12.00;;;;;6.95;65.94;100495.03;5073245;28;45371;-83
2021/12/07 09:58:05;;;;;;;;;11.67;10.33;;;;;7.00;66.23;100498.03;5072664;27;45399;-81
2021/12/07 10:00:32;;;;;;;;;11.33;9.00;;;;;7.10;66.52;100497.72;5072549;28;45344;-84
2021/12/07 10:02:58;;;;;;;;;11.00;9.33;;;;;7.14;65.91;100511.81;5074090;28;46877;-82
2021/12/07 10:05:34;;;;;;;;;12.33;8.67;;;;;7.26;65.50;100523.94;5070945;27;45524;-84
2021/12/07 10:11:40;;;;;;;;;16.00;11.33;;;;;7.03;64.50;100454.00;5057853;28;45489;-84
2021/12/07 10:15:09;;;;;;;;;13.00;11.67;;;;;6.97;64.98;100426.69;5059472;28;46880;-88
2021/12/07 10:17:42;;;;;;;;;11.00;10.00;;;;;7.00;65.28;100438.03;5051499;28;45483;-84
2021/12/07 10:20:36;;;;;;;;;12.67;10.67;;;;;7.24;66.30;100464.13;5063198;28;44820;-87
2021/12/07 10:23:48;;;;;;;;;16.33;12.33;;;;;7.23;65.19;100461.56;5068335;28;46237;-87
2021/12/07 10:27:16;;;;;;;;;14.33;14.33;;;;;7.03;66.56;100420.47;5008555;28;45885;-87
2021/12/07 10:30:30;;;;;;;;;;;;;;;;;;;;;
2021/12/07 10:34:11;;;;;;;;;18.00;18.00;;;;;7.17;67.30;100422.28;5010848;28;45310;-87
2021/12/07 10:37:40;;;;;;;;;18.00;16.00;;;;;7.21;66.87;100429.03;5036629;28;45929;-88
2021/12/07 10:40:27;;;;;;;;;17.33;17.33;;;;;7.25;67.05;100413.13;5038558;28;46385;-88
2021/12/07 10:42:58;;;;;;;;;14.00;10.67;;;;;7.28;67.36;100390.91;5063187;28;45946;-84
2021/12/07 10:45:30;;;;;;;;;14.33;13.33;;;;;7.33;67.54;100382.13;5075460;27;45603;-81
2021/12/07 10:47:55;;;;;;;;;18.33;16.00;;;;;7.34;67.62;100383.84;5045836;28;47051;-75
2021/12/07 10:50:20;;;;;;;;;15.00;13.33;;;;;7.31;67.18;100341.41;5071186;28;46118;-74
2021/12/07 10:52:46;;;;;;;;;14.67;14.67;;;;;7.38;67.49;100346.91;5066613;28;45735;-75
2021/12/07 10:55:16;;;;;;;;;16.67;11.00;;;;;7.47;67.96;100356.66;5071362;28;45445;-74
2021/12/07 10:57:52;;;;;;;;;21.00;14.67;;;;;7.58;67.35;100339.72;5071040;28;45496;-73
2021/12/07 11:00:40;;;;;;;;;16.33;12.67;;;;;7.70;66.84;100310.00;5070479;27;46934;-76
2021/12/07 11:03:15;;;;;;;;;15.33;12.00;;;;;7.86;66.86;100310.69;5068809;28;45708;-77
2021/12/07 11:05:50;;;;;;;;;11.00;10.00;;;;;7.90;66.11;100315.59;5063097;28;45694;-76
2021/12/07 11:08:19;;;;;;;;;17.33;14.00;;;;;7.98;66.35;100302.78;5048277;28;46179;-78
2021/12/07 11:10:48;;;;;;;;;19.67;13.00;;;;;8.02;66.60;100277.59;5067228;28;46240;-76
2021/12/07 11:13:16;;;;;;;;;14.33;13.00;;;;;8.06;66.39;100269.84;5068414;27;45770;-76
2021/12/07 11:15:54;;;;;;;;;17.00;14.67;;;;;8.15;66.45;100265.06;5051057;28;45771;-77
2021/12/07 11:18:27;;;;;;;;;13.33;12.67;;;;;8.14;66.01;100236.88;5071396;27;45434;-76
2021/12/07 11:20:57;;;;;;;;;15.00;13.00;;;;;8.15;66.24;100233.13;5073551;27;45907;-74
2021/12/07 11:23:26;;;;;;;;;17.00;14.33;;;;;8.06;66.62;100201.59;5069478;28;45734;-76
2021/12/07 11:31:31;;;;;;;;;17.00;15.00;;;;;8.29;66.21;100166.53;5072026;28;45523;-75
2021/12/07 11:34:14;;;;;;;;;12.00;12.00;;;;;8.41;66.03;100187.78;5057873;27;45453;-76
2021/12/07 11:36:47;;;;;;;;;12.00;11.33;;;;;8.41;66.03;100166.78;5070768;28;45517;-78
2021/12/07 11:39:35;;;;;;;;;14.00;11.00;;;;;8.55;65.78;100167.66;5068683;28;45648;-74
2021/12/07 11:42:19;;;;;;;;;13.00;13.00;;;;;8.61;65.46;100153.13;5044110;28;47354;-76
2021/12/07 11:44:53;;;;;;;;;12.33;12.33;;;;;8.64;65.59;100140.94;5063719;27;45920;-76
2021/12/07 11:47:35;;;;;;;;;10.00;8.33;;;;;8.67;65.34;100126.84;5068959;27;45819;-76
2021/12/07 11:50:33;;;;;;;;;14.67;8.00;;;;;8.75;65.36;100112.94;5069902;27;45466;-75
2021/12/07 11:53:08;;;;;;;;;6.00;6.00;;;;;8.80;64.47;100117.78;5073954;28;45509;-83
2021/12/07 11:55:37;;;;;;;;;8.67;8.33;;;;;8.77;64.59;100099.06;5068213;28;45491;-81
2021/12/07 11:58:05;;;;;;;;;11.00;9.33;;;;;8.75;65.16;100099.28;5058876;28;45623;-81
2021/12/07 12:00:38;;;;;;;;;9.00;8.00;;;;;8.80;64.90;100074.88;5068631;28;45530;-80
2021/12/07 12:03:13;;;;;;;;;10.33;7.00;;;;;8.84;64.81;100045.22;5072242;27;45662;-83
2021/12/07 12:05:42;;;;;;;;;4.00;1.00;;;;;8.83;64.76;100057.19;5066700;28;45105;-83
2021/12/07 12:08:10;;;;;;;;;8.67;8.00;;;;;8.77;64.81;100049.84;5043328;28;45871;-81
2021/12/07 12:10:38;;;;;;;;;10.33;8.00;;;;;8.82;64.95;100039.13;5073259;28;45390;-82
2021/12/07 12:13:22;;;;;;;;;17.00;9.67;;;;;8.89;64.68;100069.19;5070364;28;45951;-82
2021/12/07 12:16:28;;;;;;;;;9.00;8.00;;;;;8.86;64.57;100034.06;5067370;27;46749;-83
2021/12/07 12:19:17;;;;;;;;;9.67;7.00;;;;;8.92;64.44;100036.78;5008130;28;45769;-82
2021/12/07 12:22:14;;;;;;;;;11.00;9.33;;;;;8.82;64.73;100025.47;5063767;28;45548;-82
2021/12/07 12:24:52;;;;;;;;;7.67;5.67;;;;;8.80;64.67;100012.00;5069873;28;45824;-81
2021/12/07 12:27:30;;;;;;;;;11.33;7.67;;;;;8.86;64.64;99993.03;5055300;28;45766;-82
2021/12/07 12:29:57;;;;;;;;;7.33;4.00;;;;;8.83;64.62;99994.31;5056646;28;45945;-83
2021/12/07 12:32:36;;;;;;;;;9.00;6.00;;;;;8.89;64.13;99976.22;5063959;28;45803;-82
2021/12/07 12:35:07;;;;;;;;;9.67;7.67;;;;;8.87;64.68;99968.22;5056804;28;45544;-81
2021/12/07 12:37:33;;;;;;;;;7.67;6.67;;;;;8.92;64.32;99957.50;5045822;28;45899;-80
2021/12/07 12:40:10;;;;;;;;;7.00;6.00;;;;;8.94;64.34;99946.34;5071096;28;45996;-81
2021/12/07 12:42:38;;;;;;;;;11.00;6.67;;;;;8.90;64.55;99929.50;5070075;28;45513;-82
2021/12/07 12:45:10;;;;;;;;;12.00;8.00;;;;;8.95;64.64;99918.75;5071455;28;46484;-83
2021/12/07 12:47:39;;;;;;;;;9.00;6.33;;;;;8.94;64.33;99928.00;5071722;28;45599;-82
2021/12/07 12:50:15;;;;;;;;;15.33;7.00;;;;;8.98;64.63;99920.19;5067607;28;45536;-83
2021/12/07 12:53:01;;;;;;;;;7.00;5.00;;;;;9.07;64.29;99891.56;5068397;28;45533;-82
2021/12/07 12:55:41;;;;;;;;;8.00;6.33;;;;;9.16;64.54;99892.09;5069231;28;45515;-84
2021/12/07 12:58:16;;;;;;;;;6.00;5.00;;;;;9.21;64.05;99873.16;5070431;28;45785;-81
2021/12/07 13:01:18;;;;;;;;;6.67;5.00;;;;;9.27;63.92;99887.84;5070893;28;45516;-82
2021/12/07 13:03:43;;;;;;;;;7.33;5.00;;;;;9.30;63.92;99858.13;5072011;28;45600;-83
2021/12/07 13:06:18;;;;;;;;;4.00;4.00;;;;;9.35;63.73;99855.56;5073649;28;46124;-82
2021/12/07 13:08:53;;;;;;;;;9.00;4.67;;;;;9.41;63.70;99870.25;5075616;28;45490;-84
2021/12/07 13:11:38;;;;;;;;;8.67;4.33;;;;;9.40;63.64;99856.78;5074102;28;45850;-82
2021/12/07 13:14:07;;;;;;;;;8.67;4.67;;;;;9.36;63.32;99840.81;5067064;28;45565;-82
2021/12/07 13:16:34;;;;;;;;;3.00;3.00;;;;;9.32;63.39;99839.59;5073314;28;46188;-82
2021/12/07 13:19:10;;;;;;;;;3.00;3.00;;;;;9.32;63.49;99839.59;5071612;28;45387;-82
2021/12/07 13:21:41;;;;;;;;;6.33;3.67;;;;;9.29;62.81;99845.50;5075527;28;45352;-82
2021/12/07 13:24:08;;;;;;;;;4.67;3.00;;;;;9.31;63.26;99846.13;5068346;28;45593;-82
2021/12/07 13:26:39;;;;;;;;;5.00;2.00;;;;;9.35;63.12;99847.34;5047982;28;46579;-83
2021/12/07 13:29:25;;;;;;;;;4.00;3.00;;;;;9.39;62.69;99828.59;5056504;28;45537;-82